sensor_id;sensor_type;location;lat;lon;timestamp;temperature;humidity
22676;DHT22;12521;43.310;21.876;2023-11-19T00:02:28;5.1;96.0
22676;DHT22;12521;43.310;21.876;2023-11-19T00:07:05;5.1;96.0
22676;DHT22;12521;43.310;21.876;2023-11-19T00:11:41;5.1;96.0
22676;DHT22;12521;43.310;21.876;2023-11-19T00:16:17;5.1;96.0
22676;DHT22;12521;43.310;21.876;2023-11-19T00:20:53;5.1;96.0
22676;DHT22;12521;43.310;21.876;2023-11-19T00:25:29;5.1;96.0
22676;DHT22;12521;43.310;21.876;2023-11-19T00:30:07;5.1;96.0
22676;DHT22;12521;43.310;21.876;2023-11-19T00:34:44;5.0;96.0
22676;DHT22;12521;43.310;21.876;2023-11-19T00:39:20;5.0;96.0
22676;DHT22;12521;43.310;21.876;2023-11-19T00:43:57;5.0;96.0
22676;DHT22;12521;43.310;21.876;2023-11-19T00:48:33;5.0;96.0
22676;DHT22;12521;43.310;21.876;2023-11-19T00:53:09;4.9;96.0
22676;DHT22;12521;43.310;21.876;2023-11-19T00:57:46;4.9;96.0
22676;DHT22;12521;43.310;21.876;2023-11-19T01:02:22;4.8;96.0
22676;DHT22;12521;43.310;21.876;2023-11-19T01:06:58;4.8;96.0
22676;DHT22;12521;43.310;21.876;2023-11-19T01:11:35;4.8;96.0
22676;DHT22;12521;43.310;21.876;2023-11-19T01:16:11;4.8;96.0
22676;DHT22;12521;43.310;21.876;2023-11-19T01:20:48;4.8;96.0
22676;DHT22;12521;43.310;21.876;2023-11-19T01:25:24;4.9;96.0
22676;DHT22;12521;43.310;21.876;2023-11-19T01:30:00;4.9;96.0
22676;DHT22;12521;43.310;21.876;2023-11-19T01:34:37;5.0;96.0
22676;DHT22;12521;43.310;21.876;2023-11-19T01:39:13;5.0;96.0
22676;DHT22;12521;43.310;21.876;2023-11-19T01:43:49;5.0;96.0
22676;DHT22;12521;43.310;21.876;2023-11-19T01:48:26;5.0;96.0
22676;DHT22;12521;43.310;21.876;2023-11-19T01:53:03;5.0;96.0
22676;DHT22;12521;43.310;21.876;2023-11-19T01:57:40;5.0;96.0
22676;DHT22;12521;43.310;21.876;2023-11-19T02:02:17;5.0;96.0
22676;DHT22;12521;43.310;21.876;2023-11-19T02:06:58;5.0;96.0
22676;DHT22;12521;43.310;21.876;2023-11-19T02:11:35;5.0;96.0
22676;DHT22;12521;43.310;21.876;2023-11-19T02:16:16;5.0;96.0
22676;DHT22;12521;43.310;21.876;2023-11-19T02:20:52;5.0;96.0
22676;DHT22;12521;43.310;21.876;2023-11-19T02:25:33;4.9;96.0
22676;DHT22;12521;43.310;21.876;2023-11-19T02:30:14;4.9;96.0
22676;DHT22;12521;43.310;21.876;2023-11-19T02:34:50;4.8;96.0
22676;DHT22;12521;43.310;21.876;2023-11-19T02:39:27;4.8;96.0
22676;DHT22;12521;43.310;21.876;2023-11-19T02:44:04;4.8;96.0
22676;DHT22;12521;43.310;21.876;2023-11-19T02:48:42;4.8;96.0
22676;DHT22;12521;43.310;21.876;2023-11-19T02:53:18;4.6;96.0
22676;DHT22;12521;43.310;21.876;2023-11-19T02:57:55;4.6;96.0
22676;DHT22;12521;43.310;21.876;2023-11-19T03:02:31;4.5;96.0
22676;DHT22;12521;43.310;21.876;2023-11-19T03:07:07;4.5;96.0
22676;DHT22;12521;43.310;21.876;2023-11-19T03:11:43;4.5;96.0
22676;DHT22;12521;43.310;21.876;2023-11-19T03:16:19;4.5;96.0
22676;DHT22;12521;43.310;21.876;2023-11-19T03:20:55;4.5;96.0
22676;DHT22;12521;43.310;21.876;2023-11-19T03:25:32;4.5;96.0
22676;DHT22;12521;43.310;21.876;2023-11-19T03:30:10;4.5;96.0
22676;DHT22;12521;43.310;21.876;2023-11-19T03:34:47;4.6;96.0
22676;DHT22;12521;43.310;21.876;2023-11-19T03:39:24;4.6;96.0
22676;DHT22;12521;43.310;21.876;2023-11-19T03:44:00;4.6;96.0
22676;DHT22;12521;43.310;21.876;2023-11-19T03:48:36;4.6;96.0
22676;DHT22;12521;43.310;21.876;2023-11-19T03:53:12;4.6;96.0
22676;DHT22;12521;43.310;21.876;2023-11-19T03:57:49;4.6;96.0
22676;DHT22;12521;43.310;21.876;2023-11-19T04:02:25;4.7;96.0
22676;DHT22;12521;43.310;21.876;2023-11-19T04:07:02;4.7;96.0
22676;DHT22;12521;43.310;21.876;2023-11-19T04:11:39;4.7;96.0
22676;DHT22;12521;43.310;21.876;2023-11-19T04:16:15;4.6;96.0
22676;DHT22;12521;43.310;21.876;2023-11-19T04:20:52;4.6;96.0
22676;DHT22;12521;43.310;21.876;2023-11-19T04:25:28;4.6;96.0
22676;DHT22;12521;43.310;21.876;2023-11-19T04:30:06;4.6;96.0
22676;DHT22;12521;43.310;21.876;2023-11-19T04:34:44;4.6;96.0
22676;DHT22;12521;43.310;21.876;2023-11-19T04:39:20;4.6;96.0
22676;DHT22;12521;43.310;21.876;2023-11-19T04:43:57;4.5;96.0
22676;DHT22;12521;43.310;21.876;2023-11-19T04:48:33;4.5;96.0
22676;DHT22;12521;43.310;21.876;2023-11-19T04:53:10;4.5;96.0
22676;DHT22;12521;43.310;21.876;2023-11-19T04:57:47;4.5;96.0
22676;DHT22;12521;43.310;21.876;2023-11-19T05:02:24;4.5;96.0
22676;DHT22;12521;43.310;21.876;2023-11-19T05:07:01;4.5;96.0
22676;DHT22;12521;43.310;21.876;2023-11-19T05:11:37;4.5;96.0
22676;DHT22;12521;43.310;21.876;2023-11-19T05:16:14;4.6;96.0
22676;DHT22;12521;43.310;21.876;2023-11-19T05:20:50;4.6;96.0
22676;DHT22;12521;43.310;21.876;2023-11-19T05:25:26;4.7;96.0
22676;DHT22;12521;43.310;21.876;2023-11-19T05:30:05;4.7;96.0
22676;DHT22;12521;43.310;21.876;2023-11-19T05:34:43;4.6;96.0
22676;DHT22;12521;43.310;21.876;2023-11-19T05:39:19;4.6;96.0
22676;DHT22;12521;43.310;21.876;2023-11-19T05:43:55;4.4;96.0
22676;DHT22;12521;43.310;21.876;2023-11-19T05:48:31;4.4;96.0
22676;DHT22;12521;43.310;21.876;2023-11-19T05:53:09;4.6;96.0
22676;DHT22;12521;43.310;21.876;2023-11-19T05:57:45;4.6;96.0
22676;DHT22;12521;43.310;21.876;2023-11-19T06:02:21;4.6;96.0
22676;DHT22;12521;43.310;21.876;2023-11-19T06:06:58;4.7;96.0
22676;DHT22;12521;43.310;21.876;2023-11-19T06:11:34;4.7;96.0
22676;DHT22;12521;43.310;21.876;2023-11-19T06:16:11;4.8;96.0
22676;DHT22;12521;43.310;21.876;2023-11-19T06:20:48;4.8;96.0
22676;DHT22;12521;43.310;21.876;2023-11-19T06:25:24;4.9;96.0
22676;DHT22;12521;43.310;21.876;2023-11-19T06:30:02;4.9;96.0
22676;DHT22;12521;43.310;21.876;2023-11-19T06:34:41;5.0;96.0
22676;DHT22;12521;43.310;21.876;2023-11-19T06:39:18;5.0;96.0
22676;DHT22;12521;43.310;21.876;2023-11-19T06:43:54;5.0;96.0
22676;DHT22;12521;43.310;21.876;2023-11-19T06:48:30;5.0;96.0
22676;DHT22;12521;43.310;21.876;2023-11-19T06:53:07;5.1;96.0
22676;DHT22;12521;43.310;21.876;2023-11-19T06:57:44;5.1;96.0
22676;DHT22;12521;43.310;21.876;2023-11-19T07:02:20;5.1;96.0
22676;DHT22;12521;43.310;21.876;2023-11-19T07:06:56;5.2;96.0
22676;DHT22;12521;43.310;21.876;2023-11-19T07:11:33;5.2;96.0
22676;DHT22;12521;43.310;21.876;2023-11-19T07:16:09;5.2;96.0
22676;DHT22;12521;43.310;21.876;2023-11-19T07:20:46;5.2;96.0
22676;DHT22;12521;43.310;21.876;2023-11-19T07:25:22;5.2;96.0
22676;DHT22;12521;43.310;21.876;2023-11-19T07:29:59;5.2;96.0
22676;DHT22;12521;43.310;21.876;2023-11-19T07:34:35;5.1;96.0
22676;DHT22;12521;43.310;21.876;2023-11-19T07:39:12;5.1;96.0
22676;DHT22;12521;43.310;21.876;2023-11-19T07:43:48;5.0;96.0
22676;DHT22;12521;43.310;21.876;2023-11-19T07:48:25;5.0;96.0
22676;DHT22;12521;43.310;21.876;2023-11-19T07:53:02;5.2;96.0
22676;DHT22;12521;43.310;21.876;2023-11-19T07:57:38;5.2;96.0
22676;DHT22;12521;43.310;21.876;2023-11-19T08:02:14;5.2;96.0
22676;DHT22;12521;43.310;21.876;2023-11-19T08:06:51;5.4;96.0
22676;DHT22;12521;43.310;21.876;2023-11-19T08:11:27;5.4;96.0
22676;DHT22;12521;43.310;21.876;2023-11-19T08:16:04;5.4;96.0
22676;DHT22;12521;43.310;21.876;2023-11-19T08:20:43;5.4;96.0
22676;DHT22;12521;43.310;21.876;2023-11-19T08:25:19;5.5;96.0
22676;DHT22;12521;43.310;21.876;2023-11-19T08:29:55;5.5;96.0
22676;DHT22;12521;43.310;21.876;2023-11-19T08:34:32;5.6;96.0
22676;DHT22;12521;43.310;21.876;2023-11-19T08:39:08;5.6;96.0
22676;DHT22;12521;43.310;21.876;2023-11-19T08:43:45;5.8;96.0
22676;DHT22;12521;43.310;21.876;2023-11-19T08:48:21;5.8;96.0
22676;DHT22;12521;43.310;21.876;2023-11-19T08:52:58;5.8;96.0
22676;DHT22;12521;43.310;21.876;2023-11-19T08:57:34;5.8;96.0
22676;DHT22;12521;43.310;21.876;2023-11-19T09:02:11;5.8;96.0
22676;DHT22;12521;43.310;21.876;2023-11-19T09:06:47;5.9;96.0
22676;DHT22;12521;43.310;21.876;2023-11-19T09:11:24;5.9;96.0
22676;DHT22;12521;43.310;21.876;2023-11-19T09:16:00;6.1;96.0
22676;DHT22;12521;43.310;21.876;2023-11-19T09:20:36;6.1;96.0
22676;DHT22;12521;43.310;21.876;2023-11-19T09:25:13;6.2;96.0
22676;DHT22;12521;43.310;21.876;2023-11-19T09:29:49;6.2;96.0
22676;DHT22;12521;43.310;21.876;2023-11-19T09:34:26;6.4;96.0
22676;DHT22;12521;43.310;21.876;2023-11-19T09:39:02;6.4;96.0
22676;DHT22;12521;43.310;21.876;2023-11-19T09:43:40;6.5;96.0
22676;DHT22;12521;43.310;21.876;2023-11-19T09:48:19;6.5;96.0
22676;DHT22;12521;43.310;21.876;2023-11-19T09:52:55;6.6;96.0
22676;DHT22;12521;43.310;21.876;2023-11-19T09:57:34;6.6;96.0
22676;DHT22;12521;43.310;21.876;2023-11-19T10:02:18;6.6;96.0
22676;DHT22;12521;43.310;21.876;2023-11-19T10:06:54;6.6;96.0
22676;DHT22;12521;43.310;21.876;2023-11-19T10:11:31;6.6;96.0
22676;DHT22;12521;43.310;21.876;2023-11-19T10:16:10;6.8;96.0
22676;DHT22;12521;43.310;21.876;2023-11-19T10:20:49;6.8;96.0
22676;DHT22;12521;43.310;21.876;2023-11-19T10:25:28;7.0;96.0
22676;DHT22;12521;43.310;21.876;2023-11-19T10:30:08;7.0;96.0
22676;DHT22;12521;43.310;21.876;2023-11-19T10:34:48;7.1;96.0
22676;DHT22;12521;43.310;21.876;2023-11-19T10:39:51;7.1;96.0
22676;DHT22;12521;43.310;21.876;2023-11-19T10:44:32;7.2;96.0
22676;DHT22;12521;43.310;21.876;2023-11-19T10:49:10;7.2;96.0
22676;DHT22;12521;43.310;21.876;2023-11-19T10:53:49;7.6;96.0
22676;DHT22;12521;43.310;21.876;2023-11-19T10:58:32;7.6;96.0
22676;DHT22;12521;43.310;21.876;2023-11-19T11:03:18;8.0;96.0
22676;DHT22;12521;43.310;21.876;2023-11-19T11:08:01;8.0;96.0
22676;DHT22;12521;43.310;21.876;2023-11-19T11:12:43;8.0;96.0
22676;DHT22;12521;43.310;21.876;2023-11-19T11:17:27;8.4;96.0
22676;DHT22;12521;43.310;21.876;2023-11-19T11:22:10;8.4;96.0
22676;DHT22;12521;43.310;21.876;2023-11-19T11:27:24;8.9;96.0
22676;DHT22;12521;43.310;21.876;2023-11-19T11:33:06;8.9;96.0
22676;DHT22;12521;43.310;21.876;2023-11-19T11:38:37;8.9;96.0
22676;DHT22;12521;43.310;21.876;2023-11-19T11:43:49;8.9;96.0
22676;DHT22;12521;43.310;21.876;2023-11-19T11:48:30;8.9;96.0
22676;DHT22;12521;43.310;21.876;2023-11-19T11:53:18;8.9;96.0
22676;DHT22;12521;43.310;21.876;2023-11-19T11:58:00;8.9;96.0
22676;DHT22;12521;43.310;21.876;2023-11-19T12:02:36;8.9;96.0
22676;DHT22;12521;43.310;21.876;2023-11-19T12:07:17;8.9;96.0
22676;DHT22;12521;43.310;21.876;2023-11-19T12:12:17;8.9;96.0
22676;DHT22;12521;43.310;21.876;2023-11-19T12:17:03;9.0;96.0
22676;DHT22;12521;43.310;21.876;2023-11-19T12:22:19;9.0;96.0
22676;DHT22;12521;43.310;21.876;2023-11-19T12:26:55;9.2;96.0
22676;DHT22;12521;43.310;21.876;2023-11-19T12:31:32;9.2;96.0
22676;DHT22;12521;43.310;21.876;2023-11-19T12:36:09;9.2;96.0
22676;DHT22;12521;43.310;21.876;2023-11-19T12:40:45;9.2;96.0
22676;DHT22;12521;43.310;21.876;2023-11-19T12:45:23;9.2;96.0
22676;DHT22;12521;43.310;21.876;2023-11-19T12:50:00;9.2;96.0
22676;DHT22;12521;43.310;21.876;2023-11-19T12:54:36;9.3;96.0
22676;DHT22;12521;43.310;21.876;2023-11-19T12:59:13;9.3;96.0
22676;DHT22;12521;43.310;21.876;2023-11-19T13:03:49;9.4;96.0
22676;DHT22;12521;43.310;21.876;2023-11-19T13:08:25;9.4;96.0
22676;DHT22;12521;43.310;21.876;2023-11-19T13:13:05;9.4;96.0
22676;DHT22;12521;43.310;21.876;2023-11-19T13:17:47;9.4;96.0
22676;DHT22;12521;43.310;21.876;2023-11-19T13:22:23;9.4;96.0
22676;DHT22;12521;43.310;21.876;2023-11-19T13:26:59;9.3;96.0
22676;DHT22;12521;43.310;21.876;2023-11-19T13:31:37;9.3;96.0
22676;DHT22;12521;43.310;21.876;2023-11-19T13:36:13;9.2;96.0
22676;DHT22;12521;43.310;21.876;2023-11-19T13:40:50;9.2;96.0
22676;DHT22;12521;43.310;21.876;2023-11-19T13:45:27;9.0;96.0
22676;DHT22;12521;43.310;21.876;2023-11-19T13:50:04;9.0;96.0
22676;DHT22;12521;43.310;21.876;2023-11-19T13:54:41;8.8;96.0
22676;DHT22;12521;43.310;21.876;2023-11-19T13:59:17;8.8;96.0
22676;DHT22;12521;43.310;21.876;2023-11-19T14:03:54;8.7;96.0
22676;DHT22;12521;43.310;21.876;2023-11-19T14:08:30;8.7;96.0
22676;DHT22;12521;43.310;21.876;2023-11-19T14:13:07;8.6;96.0
22676;DHT22;12521;43.310;21.876;2023-11-19T14:17:44;8.6;96.0
22676;DHT22;12521;43.310;21.876;2023-11-19T14:22:21;8.6;96.0
22676;DHT22;12521;43.310;21.876;2023-11-19T14:26:57;8.5;96.0
22676;DHT22;12521;43.310;21.876;2023-11-19T14:31:34;8.5;96.0
22676;DHT22;12521;43.310;21.876;2023-11-19T14:36:10;8.4;96.0
22676;DHT22;12521;43.310;21.876;2023-11-19T14:40:46;8.4;96.0
22676;DHT22;12521;43.310;21.876;2023-11-19T14:45:23;8.3;96.0
22676;DHT22;12521;43.310;21.876;2023-11-19T14:49:59;8.3;96.0
22676;DHT22;12521;43.310;21.876;2023-11-19T14:54:35;8.2;96.0
22676;DHT22;12521;43.310;21.876;2023-11-19T14:59:11;8.2;96.0
22676;DHT22;12521;43.310;21.876;2023-11-19T15:03:47;8.0;96.0
22676;DHT22;12521;43.310;21.876;2023-11-19T15:08:24;8.0;96.0
22676;DHT22;12521;43.310;21.876;2023-11-19T15:13:00;8.0;96.0
22676;DHT22;12521;43.310;21.876;2023-11-19T15:17:36;7.8;96.0
22676;DHT22;12521;43.310;21.876;2023-11-19T15:22:13;7.8;96.0
22676;DHT22;12521;43.310;21.876;2023-11-19T15:26:49;7.6;96.0
22676;DHT22;12521;43.310;21.876;2023-11-19T15:31:26;7.6;96.0
22676;DHT22;12521;43.310;21.876;2023-11-19T15:36:03;7.6;96.0
22676;DHT22;12521;43.310;21.876;2023-11-19T15:40:43;7.6;96.0
22676;DHT22;12521;43.310;21.876;2023-11-19T15:45:19;7.6;96.0
22676;DHT22;12521;43.310;21.876;2023-11-19T15:49:56;7.6;96.0
22676;DHT22;12521;43.310;21.876;2023-11-19T15:54:33;7.6;96.0
22676;DHT22;12521;43.310;21.876;2023-11-19T15:59:09;7.6;96.0
22676;DHT22;12521;43.310;21.876;2023-11-19T16:03:45;7.5;96.0
22676;DHT22;12521;43.310;21.876;2023-11-19T16:08:21;7.5;96.0
22676;DHT22;12521;43.310;21.876;2023-11-19T16:12:58;7.5;96.0
22676;DHT22;12521;43.310;21.876;2023-11-19T16:17:34;7.5;96.0
22676;DHT22;12521;43.310;21.876;2023-11-19T16:22:10;7.5;96.0
22676;DHT22;12521;43.310;21.876;2023-11-19T16:26:46;7.5;96.0
22676;DHT22;12521;43.310;21.876;2023-11-19T16:31:23;7.5;96.0
22676;DHT22;12521;43.310;21.876;2023-11-19T16:35:59;7.5;96.0
22676;DHT22;12521;43.310;21.876;2023-11-19T16:40:35;7.5;96.0
22676;DHT22;12521;43.310;21.876;2023-11-19T16:45:12;7.5;96.0
22676;DHT22;12521;43.310;21.876;2023-11-19T16:49:48;7.5;96.0
22676;DHT22;12521;43.310;21.876;2023-11-19T16:54:25;7.5;96.0
22676;DHT22;12521;43.310;21.876;2023-11-19T16:59:01;7.5;96.0
22676;DHT22;12521;43.310;21.876;2023-11-19T17:03:37;7.5;96.0
22676;DHT22;12521;43.310;21.876;2023-11-19T17:08:14;7.5;96.0
22676;DHT22;12521;43.310;21.876;2023-11-19T17:12:50;7.5;96.0
22676;DHT22;12521;43.310;21.876;2023-11-19T17:17:27;7.5;96.0
22676;DHT22;12521;43.310;21.876;2023-11-19T17:22:03;7.5;96.0
22676;DHT22;12521;43.310;21.876;2023-11-19T17:26:40;7.5;96.0
22676;DHT22;12521;43.310;21.876;2023-11-19T17:31:16;7.5;96.0
22676;DHT22;12521;43.310;21.876;2023-11-19T17:35:52;7.4;96.0
22676;DHT22;12521;43.310;21.876;2023-11-19T17:40:28;7.4;96.0
22676;DHT22;12521;43.310;21.876;2023-11-19T17:45:05;7.4;96.0
22676;DHT22;12521;43.310;21.876;2023-11-19T17:49:42;7.4;96.0
22676;DHT22;12521;43.310;21.876;2023-11-19T17:54:18;7.4;96.0
22676;DHT22;12521;43.310;21.876;2023-11-19T17:58:55;7.4;96.0
22676;DHT22;12521;43.310;21.876;2023-11-19T18:03:31;7.4;96.0
22676;DHT22;12521;43.310;21.876;2023-11-19T18:08:08;7.4;96.0
22676;DHT22;12521;43.310;21.876;2023-11-19T18:12:44;7.4;96.0
22676;DHT22;12521;43.310;21.876;2023-11-19T18:17:21;7.4;96.0
22676;DHT22;12521;43.310;21.876;2023-11-19T18:21:58;7.4;96.0
22676;DHT22;12521;43.310;21.876;2023-11-19T18:26:35;7.4;96.0
22676;DHT22;12521;43.310;21.876;2023-11-19T18:31:11;7.4;96.0
22676;DHT22;12521;43.310;21.876;2023-11-19T18:35:48;7.3;96.0
22676;DHT22;12521;43.310;21.876;2023-11-19T18:40:25;7.3;96.0
22676;DHT22;12521;43.310;21.876;2023-11-19T18:45:02;7.2;96.0
22676;DHT22;12521;43.310;21.876;2023-11-19T18:49:41;7.2;96.0
22676;DHT22;12521;43.310;21.876;2023-11-19T18:54:17;7.2;96.0
22676;DHT22;12521;43.310;21.876;2023-11-19T18:58:53;7.2;96.0
22676;DHT22;12521;43.310;21.876;2023-11-19T19:03:29;7.2;96.0
22676;DHT22;12521;43.310;21.876;2023-11-19T19:08:05;7.2;96.0
22676;DHT22;12521;43.310;21.876;2023-11-19T19:12:41;7.2;96.0
22676;DHT22;12521;43.310;21.876;2023-11-19T19:17:18;7.2;96.0
22676;DHT22;12521;43.310;21.876;2023-11-19T19:21:54;7.2;96.0
22676;DHT22;12521;43.310;21.876;2023-11-19T19:26:31;7.3;96.0
22676;DHT22;12521;43.310;21.876;2023-11-19T19:31:07;7.3;96.0
22676;DHT22;12521;43.310;21.876;2023-11-19T19:35:43;7.3;96.0
22676;DHT22;12521;43.310;21.876;2023-11-19T19:40:20;7.3;96.0
22676;DHT22;12521;43.310;21.876;2023-11-19T19:44:56;7.3;96.0
22676;DHT22;12521;43.310;21.876;2023-11-19T19:49:32;7.3;96.0
22676;DHT22;12521;43.310;21.876;2023-11-19T19:54:09;7.3;96.0
22676;DHT22;12521;43.310;21.876;2023-11-19T19:58:45;7.3;96.0
22676;DHT22;12521;43.310;21.876;2023-11-19T20:03:22;7.3;96.0
22676;DHT22;12521;43.310;21.876;2023-11-19T20:07:58;7.3;96.0
22676;DHT22;12521;43.310;21.876;2023-11-19T20:12:35;7.3;96.0
22676;DHT22;12521;43.310;21.876;2023-11-19T20:17:11;7.2;96.0
22676;DHT22;12521;43.310;21.876;2023-11-19T20:21:47;7.2;96.0
22676;DHT22;12521;43.310;21.876;2023-11-19T20:26:24;7.2;96.0
22676;DHT22;12521;43.310;21.876;2023-11-19T20:31:00;7.2;96.0
22676;DHT22;12521;43.310;21.876;2023-11-19T20:35:36;7.2;96.0
22676;DHT22;12521;43.310;21.876;2023-11-19T20:40:12;7.2;96.0
22676;DHT22;12521;43.310;21.876;2023-11-19T20:44:49;7.2;96.0
22676;DHT22;12521;43.310;21.876;2023-11-19T20:49:25;7.2;96.0
22676;DHT22;12521;43.310;21.876;2023-11-19T20:54:01;7.2;96.0
22676;DHT22;12521;43.310;21.876;2023-11-19T20:58:38;7.2;96.0
22676;DHT22;12521;43.310;21.876;2023-11-19T21:03:14;7.2;96.0
22676;DHT22;12521;43.310;21.876;2023-11-19T21:07:50;7.2;96.0
22676;DHT22;12521;43.310;21.876;2023-11-19T21:12:26;7.2;96.0
22676;DHT22;12521;43.310;21.876;2023-11-19T21:17:03;7.2;96.0
22676;DHT22;12521;43.310;21.876;2023-11-19T21:21:39;7.2;96.0
22676;DHT22;12521;43.310;21.876;2023-11-19T21:26:16;7.2;96.0
22676;DHT22;12521;43.310;21.876;2023-11-19T21:30:54;7.2;96.0
22676;DHT22;12521;43.310;21.876;2023-11-19T21:35:30;7.2;96.0
22676;DHT22;12521;43.310;21.876;2023-11-19T21:40:08;7.2;96.0
22676;DHT22;12521;43.310;21.876;2023-11-19T21:44:46;7.1;96.0
22676;DHT22;12521;43.310;21.876;2023-11-19T21:49:22;7.1;96.0
22676;DHT22;12521;43.310;21.876;2023-11-19T21:53:58;7.0;96.0
22676;DHT22;12521;43.310;21.876;2023-11-19T21:58:34;7.0;96.0
22676;DHT22;12521;43.310;21.876;2023-11-19T22:03:10;7.0;96.0
22676;DHT22;12521;43.310;21.876;2023-11-19T22:07:47;6.9;96.0
22676;DHT22;12521;43.310;21.876;2023-11-19T22:12:23;6.9;96.0
22676;DHT22;12521;43.310;21.876;2023-11-19T22:17:00;6.8;96.0
22676;DHT22;12521;43.310;21.876;2023-11-19T22:21:36;6.8;96.0
22676;DHT22;12521;43.310;21.876;2023-11-19T22:26:13;6.7;96.0
22676;DHT22;12521;43.310;21.876;2023-11-19T22:30:49;6.7;96.0
22676;DHT22;12521;43.310;21.876;2023-11-19T22:35:25;6.6;96.0
22676;DHT22;12521;43.310;21.876;2023-11-19T22:40:03;6.6;96.0
22676;DHT22;12521;43.310;21.876;2023-11-19T22:44:44;6.6;96.0
22676;DHT22;12521;43.310;21.876;2023-11-19T22:49:20;6.6;96.0
22676;DHT22;12521;43.310;21.876;2023-11-19T22:53:56;6.6;96.0
22676;DHT22;12521;43.310;21.876;2023-11-19T22:58:32;6.6;96.0
22676;DHT22;12521;43.310;21.876;2023-11-19T23:03:08;6.6;96.0
22676;DHT22;12521;43.310;21.876;2023-11-19T23:07:45;6.6;96.0
22676;DHT22;12521;43.310;21.876;2023-11-19T23:12:21;6.6;96.0
22676;DHT22;12521;43.310;21.876;2023-11-19T23:16:57;6.6;96.0
22676;DHT22;12521;43.310;21.876;2023-11-19T23:21:33;6.6;96.0
22676;DHT22;12521;43.310;21.876;2023-11-19T23:26:11;6.7;96.0
22676;DHT22;12521;43.310;21.876;2023-11-19T23:30:48;6.7;96.0
22676;DHT22;12521;43.310;21.876;2023-11-19T23:35:25;6.7;96.0
22676;DHT22;12521;43.310;21.876;2023-11-19T23:40:03;6.7;96.0
22676;DHT22;12521;43.310;21.876;2023-11-19T23:44:43;6.7;96.0
22676;DHT22;12521;43.310;21.876;2023-11-19T23:49:19;6.7;96.0
22676;DHT22;12521;43.310;21.876;2023-11-19T23:53:56;6.6;96.0
22676;DHT22;12521;43.310;21.876;2023-11-19T23:58:32;6.6;96.0
